Illescas, Spain
Current Conditions -  °F | °C
As of 5:00 PM on Thursday 29 Jan 2015 (Local Time) from LEGT Reporting Station
Broken Clouds Broken Clouds  
Wind Chill: 52°   Ceiling: 4200
Heat Index: 52°   Visibility: 6mi
Dew Point: 43°   Wind: 21mph
Humidity: 71%   Direction: 250°WSW
Pressure: 29.85"   Gusts: 33mph
Location:  40.12°N, 3.85°W
Report Text: LEGT 291600Z 25018G29KT 220V280 9999 BKN042 11/06 Q1011
Loading
Personal Weather Stations






























Interactive Weather Map New forecast layout! Learn more

10-Day Weather Forecast

Advertisements
Track Severe Weather on mobile